Time;durP1;ratioP1;P1;durP2;ratioP2;P2;SDS_P1;SDS_P2;PMS_P1;PMS_P2;Temp;Humidity;BMP_temperature;BMP_pressure;BME280_temperature;BME280_humidity;BME280_pressure;Samples;Min_cycle;Max_cycle;Signal;HPM_P1;HPM_P2
2022/10/16 00:00:36;;;;;;;58.97;42.78;;;;;;;11.90;100.00;99553.47;5095445;28;20059;-80
2022/10/16 00:03:03;;;;;;;48.00;35.67;;;;;;;11.89;100.00;99543.13;5095327;28;20020;-80
2022/10/16 00:05:28;;;;;;;33.33;26.77;;;;;;;11.98;100.00;99548.69;5095574;28;20024;-80
2022/10/16 00:07:53;;;;;;;39.72;30.27;;;;;;;12.04;100.00;99549.28;5095151;28;20139;-80
2022/10/16 00:10:19;;;;;;;34.53;27.45;;;;;;;12.12;100.00;99558.38;5095190;28;20444;-80
2022/10/16 00:12:44;;;;;;;39.20;30.42;;;;;;;12.08;100.00;99541.19;5095293;28;20032;-80
2022/10/16 00:15:09;;;;;;;33.28;26.67;;;;;;;12.12;100.00;99545.31;5094674;28;20028;-80
2022/10/16 00:17:35;;;;;;;34.20;26.63;;;;;;;12.19;100.00;99554.53;5095061;28;20047;-80
2022/10/16 00:20:01;;;;;;;26.40;22.90;;;;;;;12.27;100.00;99564.56;5094982;28;20035;-80
2022/10/16 00:22:26;;;;;;;25.35;22.63;;;;;;;12.20;100.00;99547.53;5095250;28;20059;-80
2022/10/16 00:24:51;;;;;;;25.90;22.95;;;;;;;12.29;100.00;99554.00;5095474;28;20027;-80
2022/10/16 00:27:17;;;;;;;29.85;23.42;;;;;;;12.36;100.00;99558.81;5093786;28;20420;-80
2022/10/16 00:29:43;;;;;;;26.33;21.85;;;;;;;12.38;100.00;99556.09;5094925;28;20054;-80
2022/10/16 00:32:08;;;;;;;28.35;22.05;;;;;;;12.31;100.00;99539.94;5094881;28;20036;-80
2022/10/16 00:34:34;;;;;;;22.38;19.33;;;;;;;12.41;100.00;99550.72;5095041;28;20095;-80
2022/10/16 00:37:00;;;;;;;25.42;19.52;;;;;;;12.46;100.00;99553.91;5094804;28;20398;-80
2022/10/16 00:39:25;;;;;;;24.88;19.00;;;;;;;12.45;100.00;99542.63;5094882;28;20019;-80
2022/10/16 00:41:51;;;;;;;22.25;19.40;;;;;;;12.44;100.00;99542.72;5094704;28;20024;-80
2022/10/16 00:44:41;;;;;;;21.55;18.35;;;;;;;12.52;100.00;99550.97;5094445;28;20339;-80
2022/10/16 00:47:12;;;;;;;23.27;19.17;;;;;;;12.52;100.00;99547.53;5094576;28;20024;-80
2022/10/16 00:49:38;;;;;;;21.05;18.15;;;;;;;12.49;100.00;99538.06;5094726;28;20459;-80
2022/10/16 00:52:05;;;;;;;22.88;18.90;;;;;;;12.50;100.00;99542.38;5094423;28;20092;-80
2022/10/16 00:54:32;;;;;;;19.40;17.30;;;;;;;12.59;100.00;99541.00;5094724;28;20387;-80
2022/10/16 00:57:01;;;;;;;22.00;17.85;;;;;;;12.59;100.00;99539.22;5094361;28;20165;-80
2022/10/16 00:59:33;;;;;;;19.02;16.88;;;;;;;12.61;100.00;99542.63;5094541;28;20024;-80
2022/10/16 01:01:59;;;;;;;19.73;17.52;;;;;;;12.56;100.00;99539.44;5094390;28;20024;-80
2022/10/16 01:04:26;;;;;;;17.27;15.20;;;;;;;12.56;100.00;99541.19;5094182;28;20024;-80
2022/10/16 01:07:02;;;;;;;17.92;15.38;;;;;;;12.65;100.00;99554.56;5094325;28;20048;-80
2022/10/16 01:09:59;;;;;;;18.65;16.15;;;;;;;12.53;100.00;99528.31;5094151;28;20374;-80
2022/10/16 01:12:53;;;;;;;16.50;13.95;;;;;;;12.65;100.00;99562.41;5094072;28;20024;-80
2022/10/16 01:15:29;;;;;;;16.02;13.65;;;;;;;12.58;100.00;99548.00;5011390;28;20041;-80
2022/10/16 01:18:00;;;;;;;15.50;14.00;;;;;;;12.63;100.00;99552.97;5011684;28;20057;-80
2022/10/16 01:20:28;;;;;;;17.98;14.05;;;;;;;12.58;100.00;99563.69;5011341;28;20080;-80
2022/10/16 01:23:04;;;;;;;17.02;13.73;;;;;;;12.58;100.00;99560.22;5011517;28;20030;-80
2022/10/16 01:26:07;;;;;;;14.57;12.48;;;;;;;12.59;100.00;99572.34;5011561;28;20038;-80
2022/10/16 01:28:39;;;;;;;15.45;13.57;;;;;;;12.49;100.00;99561.59;5011775;28;20040;-80
2022/10/16 01:31:05;;;;;;;14.77;13.20;;;;;;;12.48;100.00;99560.75;5011293;28;20164;-80
2022/10/16 01:33:39;;;;;;;15.88;13.50;;;;;;;12.50;100.00;99563.25;5011646;28;20042;-80
2022/10/16 01:36:15;;;;;;;15.20;13.70;;;;;;;12.51;100.00;99567.56;5011203;28;20022;-80
2022/10/16 01:38:45;;;;;;;16.30;13.35;;;;;;;12.45;100.00;99555.69;5011219;28;20532;-80
2022/10/16 01:41:39;;;;;;;14.15;12.65;;;;;;;12.45;100.00;99550.47;5011076;28;20026;-80
2022/10/16 01:44:10;;;;;;;15.40;13.15;;;;;;;12.53;100.00;99567.50;5011040;28;20030;-80
2022/10/16 01:46:39;;;;;;;14.63;13.13;;;;;;;12.53;100.00;99565.72;5011178;28;20105;-80
2022/10/16 01:49:06;;;;;;;15.68;12.13;;;;;;;12.53;100.00;99563.09;5010902;28;20037;-80
2022/10/16 01:51:33;;;;;;;16.75;12.52;;;;;;;12.53;100.00;99563.09;5045661;28;20431;-80
2022/10/16 01:54:01;;;;;;;14.45;12.90;;;;;;;12.56;100.00;99570.78;5093439;28;20056;-80
2022/10/16 01:56:29;;;;;;;14.52;11.75;;;;;;;12.55;100.00;99569.06;5093166;28;20020;-80
2022/10/16 01:59:01;;;;;;;13.20;11.70;;;;;;;12.56;100.00;99567.31;5093368;28;20019;-80
2022/10/16 02:01:30;;;;;;;13.98;11.88;;;;;;;12.56;100.00;99564.72;5092758;28;20080;-80
2022/10/16 02:04:01;;;;;;;14.57;12.57;;;;;;;12.59;100.00;99574.97;5093322;28;20020;-79
2022/10/16 02:06:27;;;;;;;14.20;12.25;;;;;;;12.54;100.00;99566.56;5092751;28;20316;-80
2022/10/16 02:08:53;;;;;;;15.35;11.80;;;;;;;12.62;100.00;99575.66;5093133;28;20040;-80
2022/10/16 02:11:18;;;;;;;14.57;11.73;;;;;;;12.64;100.00;99580.78;5092892;28;20051;-80
2022/10/16 02:13:48;;;;;;;12.95;11.52;;;;;;;12.62;100.00;99583.47;5092851;28;20023;-80
2022/10/16 02:16:14;;;;;;;15.75;11.13;;;;;;;12.59;100.00;99570.59;5092614;28;20028;-80
2022/10/16 02:18:42;;;;;;;12.02;10.75;;;;;;;12.62;100.00;99570.41;5092794;28;20479;-80
2022/10/16 02:21:22;;;;;;;14.23;11.73;;;;;;;12.67;100.00;99578.00;5092658;28;20028;-80
2022/10/16 02:23:54;;;;;;;13.90;11.00;;;;;;;12.72;100.00;99591.63;5093120;28;20028;-80
2022/10/16 02:26:37;;;;;;;13.05;10.43;;;;;;;12.71;100.00;99590.81;5092529;28;20032;-80
2022/10/16 02:29:09;;;;;;;13.00;10.98;;;;;;;12.68;100.00;99579.66;5092906;28;20024;-80
2022/10/16 02:31:41;;;;;;;12.75;11.43;;;;;;;12.73;100.00;99588.13;5092775;28;20024;-80
2022/10/16 02:34:08;;;;;;;12.73;10.85;;;;;;;12.71;100.00;99590.81;5092688;28;20020;-80
2022/10/16 02:36:35;;;;;;;11.23;9.88;;;;;;;12.74;100.00;99590.63;5092481;28;20070;-80
2022/10/16 02:39:03;;;;;;;11.23;9.55;;;;;;;12.81;100.00;99600.72;5092787;28;20020;-80
2022/10/16 02:41:29;;;;;;;12.43;10.23;;;;;;;12.82;100.00;99595.44;5092436;28;20030;-80
2022/10/16 02:43:54;;;;;;;10.57;9.50;;;;;;;12.80;100.00;99592.06;5092666;28;20020;-80
2022/10/16 02:46:20;;;;;;;12.73;10.30;;;;;;;12.83;100.00;99597.13;5092381;28;20051;-80
2022/10/16 02:48:46;;;;;;;12.10;10.02;;;;;;;12.82;100.00;99602.44;5092577;28;20024;-80
2022/10/16 02:51:11;;;;;;;11.02;9.38;;;;;;;12.82;100.00;99592.81;5091822;28;20028;-80
2022/10/16 02:53:37;;;;;;;11.27;9.52;;;;;;;12.81;100.00;99588.53;5092287;28;20471;-80
2022/10/16 02:56:02;;;;;;;14.70;10.27;;;;;;;12.87;100.00;99609.06;5092537;28;20024;-80
2022/10/16 02:58:27;;;;;;;12.23;9.82;;;;;;;12.83;100.00;99598.88;5092189;28;20028;-80
2022/10/16 03:00:53;;;;;;;11.07;9.73;;;;;;;12.81;100.00;99593.75;5092336;28;20443;-80
2022/10/16 03:03:18;;;;;;;11.48;10.15;;;;;;;12.87;100.00;99603.00;5091944;28;20447;-80
2022/10/16 03:05:45;;;;;;;10.77;9.60;;;;;;;12.87;100.00;99603.00;5092157;28;20020;-80
2022/10/16 03:08:11;;;;;;;10.63;9.63;;;;;;;12.87;100.00;99600.41;5091625;28;20044;-80
2022/10/16 03:10:37;;;;;;;11.50;9.90;;;;;;;12.86;100.00;99599.56;5092310;28;20136;-80
2022/10/16 03:13:02;;;;;;;16.65;11.27;;;;;;;12.81;100.00;99591.16;5092072;28;20460;-80
2022/10/16 03:15:28;;;;;;;10.80;9.70;;;;;;;12.83;100.00;99611.97;5091959;28;20035;-80
2022/10/16 03:17:54;;;;;;;11.55;10.35;;;;;;;12.84;100.00;99608.41;5092025;28;20103;-80
2022/10/16 03:20:19;;;;;;;10.90;9.75;;;;;;;12.83;100.00;99615.41;5091900;28;20032;-80
2022/10/16 03:22:45;;;;;;;12.32;10.48;;;;;;;12.74;100.00;99588.03;5091885;28;20527;-80
2022/10/16 03:25:10;;;;;;;14.98;10.40;;;;;;;12.80;100.00;99601.66;5091947;28;20107;-80
2022/10/16 03:27:35;;;;;;;13.20;10.50;;;;;;;12.74;100.00;99587.19;5092100;28;20378;-80
2022/10/16 03:30:01;;;;;;;12.85;10.57;;;;;;;12.78;100.00;99611.38;5092007;28;20104;-80
2022/10/16 03:32:28;;;;;;;12.93;9.52;;;;;;;12.70;100.00;99604.81;5091747;28;20027;-80
2022/10/16 03:34:54;;;;;;;11.23;9.80;;;;;;;12.76;100.00;99615.84;5091813;28;20065;-80
2022/10/16 03:37:19;;;;;;;13.82;10.18;;;;;;;12.71;100.00;99616.94;5091578;28;20024;-80
2022/10/16 03:39:45;;;;;;;11.00;9.90;;;;;;;12.68;100.00;99621.47;5092022;28;20028;-80
2022/10/16 03:42:10;;;;;;;14.18;10.75;;;;;;;12.61;100.00;99620.16;5091951;28;20020;-80
2022/10/16 03:44:35;;;;;;;13.45;10.70;;;;;;;12.62;100.00;99621.84;5091786;28;20016;-80
2022/10/16 03:47:01;;;;;;;12.05;10.57;;;;;;;12.69;100.00;99629.25;5091800;28;20020;-80
2022/10/16 03:49:26;;;;;;;11.85;10.65;;;;;;;12.69;100.00;99623.19;5089337;28;20089;-80
2022/10/16 03:51:51;;;;;;;11.95;10.73;;;;;;;12.67;100.00;99630.25;5092010;28;20371;-80
2022/10/16 03:54:17;;;;;;;14.48;11.65;;;;;;;12.65;100.00;99619.91;5091453;28;20020;-80
2022/10/16 03:56:42;;;;;;;14.32;11.15;;;;;;;12.73;100.00;99632.53;5091814;28;20024;-80
2022/10/16 03:59:08;;;;;;;12.88;11.35;;;;;;;12.72;100.00;99634.31;5091798;28;20444;-80
2022/10/16 04:01:33;;;;;;;11.80;10.25;;;;;;;12.69;100.00;99631.03;5091404;28;20344;-80
2022/10/16 04:03:58;;;;;;;13.23;11.02;;;;;;;12.66;100.00;99624.19;5094413;28;20108;-80
2022/10/16 04:06:24;;;;;;;11.90;10.20;;;;;;;12.70;100.00;99627.47;5095165;28;20064;-80
2022/10/16 04:08:49;;;;;;;13.27;11.13;;;;;;;12.69;100.00;99631.88;5095463;28;20023;-80
2022/10/16 04:11:14;;;;;;;13.20;10.32;;;;;;;12.70;100.00;99630.94;5095315;28;20059;-80
2022/10/16 04:13:40;;;;;;;14.00;11.00;;;;;;;12.64;100.00;99625.19;5095328;28;20546;-80
2022/10/16 04:16:05;;;;;;;13.70;10.30;;;;;;;12.67;100.00;99638.94;5095386;28;20024;-80
2022/10/16 04:18:30;;;;;;;12.82;10.77;;;;;;;12.59;100.00;99624.63;5095018;28;20047;-80
2022/10/16 04:20:56;;;;;;;12.10;10.85;;;;;;;12.59;100.00;99632.44;5095194;28;20107;-80
2022/10/16 04:23:22;;;;;;;11.95;10.48;;;;;;;12.59;100.00;99635.91;5094804;28;20109;-80
2022/10/16 04:25:48;;;;;;;13.45;11.13;;;;;;;12.52;100.00;99625.91;5095202;28;20024;-80
2022/10/16 04:28:13;;;;;;;12.93;11.52;;;;;;;12.49;100.00;99621.66;5095114;28;20024;-80
2022/10/16 04:30:39;;;;;;;11.95;10.70;;;;;;;12.54;100.00;99632.69;5095079;28;20032;-80
2022/10/16 04:33:04;;;;;;;12.52;11.30;;;;;;;12.56;100.00;99641.31;5095221;28;20367;-80
2022/10/16 04:35:30;;;;;;;14.30;11.50;;;;;;;12.57;100.00;99645.59;5094683;28;20034;-80
2022/10/16 04:37:58;;;;;;;12.45;10.98;;;;;;;12.63;100.00;99650.47;5094751;28;20027;-80
2022/10/16 04:40:23;;;;;;;11.75;10.05;;;;;;;12.65;100.00;99656.47;5095016;28;20028;-80
2022/10/16 04:42:49;;;;;;;11.55;10.35;;;;;;;12.59;100.00;99646.34;5094803;28;20027;-80
2022/10/16 04:45:14;;;;;;;13.00;11.60;;;;;;;12.62;100.00;99654.03;5094795;28;20028;-80
2022/10/16 04:47:39;;;;;;;11.80;10.48;;;;;;;12.58;100.00;99644.69;5094592;28;20031;-80
2022/10/16 04:50:06;;;;;;;11.95;10.63;;;;;;;12.70;100.00;99659.69;5094689;28;20115;-80
2022/10/16 04:52:31;;;;;;;12.98;11.68;;;;;;;12.69;100.00;99655.38;5094254;28;20047;-80
2022/10/16 04:55:00;;;;;;;11.85;10.63;;;;;;;12.71;100.00;99658.75;5094390;28;20052;-80
2022/10/16 04:57:26;;;;;;;13.00;10.82;;;;;;;12.71;100.00;99653.53;5094380;28;20012;-80
2022/10/16 04:59:52;;;;;;;12.02;10.18;;;;;;;12.76;100.00;99657.66;5094387;28;20052;-80
2022/10/16 05:02:17;;;;;;;13.38;11.60;;;;;;;12.82;100.00;99662.56;5094062;28;20426;-80
2022/10/16 05:04:43;;;;;;;17.20;12.05;;;;;;;12.77;100.00;99644.50;5094292;28;20027;-79
2022/10/16 05:07:08;;;;;;;12.05;10.75;;;;;;;12.79;100.00;99655.72;5094427;28;20367;-80
2022/10/16 05:09:34;;;;;;;15.10;11.82;;;;;;;12.82;100.00;99654.72;5094198;28;20391;-80
2022/10/16 05:11:59;;;;;;;14.43;12.30;;;;;;;12.74;100.00;99645.50;5094137;28;20028;-80
2022/10/16 05:14:24;;;;;;;11.85;10.63;;;;;;;12.76;100.00;99649.81;5093519;28;20046;-80
2022/10/16 05:16:50;;;;;;;13.70;11.82;;;;;;;12.71;100.00;99653.53;5094217;28;20020;-80
2022/10/16 05:19:15;;;;;;;13.65;11.45;;;;;;;12.76;100.00;99678.56;5094080;28;20020;-80
2022/10/16 05:21:41;;;;;;;12.93;10.95;;;;;;;12.71;100.00;99673.59;5093754;28;20028;-80
2022/10/16 05:24:06;;;;;;;12.23;10.70;;;;;;;12.72;100.00;99681.34;5094187;28;20020;-80
2022/10/16 05:26:31;;;;;;;12.88;10.63;;;;;;;12.65;100.00;99677.38;5093778;28;20020;-80
2022/10/16 05:28:57;;;;;;;13.02;11.43;;;;;;;12.70;100.00;99688.44;5093911;28;20116;-80
2022/10/16 05:31:22;;;;;;;12.23;11.02;;;;;;;12.70;100.00;99682.34;5093593;28;20043;-80
2022/10/16 05:33:48;;;;;;;12.23;11.02;;;;;;;12.69;100.00;99672.84;5093764;28;20016;-80
2022/10/16 05:36:13;;;;;;;14.73;11.60;;;;;;;12.71;100.00;99681.44;5093646;28;20020;-80
2022/10/16 05:38:39;;;;;;;13.77;11.25;;;;;;;12.66;100.00;99668.63;5093559;28;20046;-80
2022/10/16 05:41:05;;;;;;;13.48;11.68;;;;;;;12.67;100.00;99672.06;5093763;28;20024;-80
2022/10/16 05:43:32;;;;;;;13.05;11.75;;;;;;;12.70;100.00;99683.19;5093314;28;20024;-80
2022/10/16 05:46:02;;;;;;;13.80;11.55;;;;;;;12.74;100.00;99689.09;5093555;28;20027;-80
2022/10/16 05:48:27;;;;;;;12.67;11.37;;;;;;;12.69;100.00;99684.13;5093256;28;20046;-80
2022/10/16 05:51:00;;;;;;;15.15;13.02;;;;;;;12.76;100.00;99694.25;5093382;28;20527;-80
2022/10/16 05:53:27;;;;;;;13.88;12.40;;;;;;;12.74;100.00;99700.41;5093308;28;20102;-80
2022/10/16 05:55:54;;;;;;;14.88;12.10;;;;;;;12.78;100.00;99702.84;5093423;28;20463;-80
2022/10/16 05:58:19;;;;;;;13.15;11.73;;;;;;;12.79;100.00;99700.16;5093338;28;20031;-80
2022/10/16 06:00:44;;;;;;;12.43;10.88;;;;;;;12.82;100.00;99704.38;5093227;28;20016;-80
2022/10/16 06:03:10;;;;;;;14.05;11.05;;;;;;;12.84;100.00;99702.50;5091779;28;20035;-80
2022/10/16 06:05:35;;;;;;;12.20;10.82;;;;;;;12.87;100.00;99704.97;5093073;28;20024;-81
2022/10/16 06:08:01;;;;;;;13.23;11.32;;;;;;;12.97;100.00;99712.19;5092905;28;20032;-80
2022/10/16 06:10:26;;;;;;;12.55;10.15;;;;;;;12.98;100.00;99715.69;5092961;28;20103;-80
2022/10/16 06:12:51;;;;;;;13.48;11.63;;;;;;;13.01;100.00;99712.88;5093102;28;20099;-80
2022/10/16 06:15:17;;;;;;;15.98;11.82;;;;;;;13.03;100.00;99724.09;5093248;28;20115;-80
2022/10/16 06:17:42;;;;;;;12.43;10.52;;;;;;;13.08;100.00;99724.69;5092576;28;20133;-80
2022/10/16 06:20:08;;;;;;;11.70;9.75;;;;;;;13.07;100.00;99717.78;5092816;28;20408;-80
2022/10/16 06:22:33;;;;;;;11.93;10.73;;;;;;;13.13;100.00;99722.66;5092495;28;20053;-80
2022/10/16 06:24:58;;;;;;;11.93;10.32;;;;;;;13.11;100.00;99724.53;5092585;28;20043;-81
2022/10/16 06:27:23;;;;;;;13.90;11.77;;;;;;;13.15;100.00;99726.03;5092202;28;20035;-80
2022/10/16 06:29:49;;;;;;;13.35;11.10;;;;;;;13.21;100.00;99741.38;5092832;28;20087;-80
2022/10/16 06:32:14;;;;;;;14.40;11.45;;;;;;;13.18;100.00;99732.84;5092690;28;20477;-80
2022/10/16 06:34:40;;;;;;;12.32;11.02;;;;;;;13.30;100.00;99744.44;5092394;28;20490;-80
2022/10/16 06:37:06;;;;;;;15.40;12.13;;;;;;;13.40;100.00;99756.06;5092896;28;20051;-80
2022/10/16 06:39:31;;;;;;;18.92;15.27;;;;;;;13.46;100.00;99746.09;5092826;28;20058;-80
2022/10/16 06:41:56;;;;;;;11.55;10.30;;;;;;;13.51;100.00;99737.97;5092479;28;20024;-80
2022/10/16 06:44:22;;;;;;;24.50;21.83;;;;;;;13.63;100.00;99741.66;5092521;28;20041;-80
2022/10/16 06:46:47;;;;;;;12.30;10.77;;;;;;;13.85;100.00;99757.81;5092330;28;20344;-81
2022/10/16 06:49:13;;;;;;;17.52;14.75;;;;;;;13.93;100.00;99747.72;5092362;28;20023;-80
2022/10/16 06:51:40;;;;;;;14.98;12.00;;;;;;;13.96;100.00;99754.56;5092257;28;20024;-80
2022/10/16 06:54:06;;;;;;;16.02;14.30;;;;;;;13.89;100.00;99759.31;5092395;28;20020;-80
2022/10/16 06:56:32;;;;;;;15.63;12.63;;;;;;;13.90;100.00;99760.16;5092392;28;20027;-80
2022/10/16 06:58:58;;;;;;;11.10;10.00;;;;;;;13.95;100.00;99782.53;5092313;28;20016;-81
2022/10/16 07:01:24;;;;;;;12.55;10.50;;;;;;;13.91;100.00;99785.44;5091954;28;20066;-80
2022/10/16 07:03:50;;;;;;;11.73;10.52;;;;;;;13.83;100.00;99770.16;5092098;28;20531;-80
2022/10/16 07:06:18;;;;;;;11.93;9.65;;;;;;;13.86;100.00;99779.59;5092097;28;20048;-81
2022/10/16 07:08:45;;;;;;;12.63;9.38;;;;;;;13.88;100.00;99773.34;5090737;28;20031;-81
2022/10/16 07:11:14;;;;;;;10.13;8.88;;;;;;;13.97;100.00;99771.97;5092205;28;20020;-81
2022/10/16 07:13:41;;;;;;;10.23;8.95;;;;;;;14.02;100.00;99761.22;5091877;28;20020;-81
2022/10/16 07:16:09;;;;;;;10.00;9.00;;;;;;;14.26;100.00;99787.75;5090601;28;20040;-81
2022/10/16 07:18:35;;;;;;;9.70;8.70;;;;;;;14.36;100.00;99783.63;5091806;28;20027;-81
2022/10/16 07:21:08;;;;;;;9.88;8.88;;;;;;;14.52;100.00;99794.06;5092140;28;20064;-81
2022/10/16 07:23:34;;;;;;;10.63;8.98;;;;;;;14.57;100.00;99784.97;5091819;28;20028;-81
2022/10/16 07:26:00;;;;;;;9.75;8.75;;;;;;;14.67;100.00;99787.91;5092054;28;20411;-81
2022/10/16 07:28:25;;;;;;;9.02;8.13;;;;;;;14.85;100.00;99793.78;5091767;28;20024;-81
2022/10/16 07:30:51;;;;;;;11.70;9.23;;;;;;;15.02;100.00;99787.50;5091574;28;20603;-81
2022/10/16 07:33:16;;;;;;;11.02;8.70;;;;;;;15.16;100.00;99792.69;5090489;28;20058;-81
2022/10/16 07:35:52;;;;;;;12.02;10.73;;;;;;;15.27;100.00;99786.78;5091776;28;20070;-80
2022/10/16 07:38:18;;;;;;;9.43;8.10;;;;;;;15.40;100.00;99791.13;5095422;28;20024;-81
2022/10/16 07:40:44;;;;;;;14.63;13.10;;;;;;;15.67;100.00;99790.31;5095781;28;20020;-81
2022/10/16 07:43:10;;;;;;;8.98;8.07;;;;;;;15.84;100.00;99792.66;5095698;28;20046;-81
2022/10/16 07:45:36;;;;;;;9.00;7.68;;;;;;;16.10;100.00;99782.25;5095829;28;20024;-81
2022/10/16 07:48:01;;;;;;;7.75;7.03;;;;;;;16.14;100.00;99776.66;5095991;28;20059;-81
2022/10/16 07:50:27;;;;;;;8.07;7.00;;;;;;;16.46;100.00;99776.25;5095766;28;20020;-81
2022/10/16 07:52:52;;;;;;;8.57;7.25;;;;;;;16.79;100.00;99788.88;5095903;28;20186;-81
2022/10/16 07:55:17;;;;;;;8.40;6.72;;;;;;;17.06;100.00;99783.44;5095784;28;20028;-81
2022/10/16 07:57:43;;;;;;;7.00;6.30;;;;;;;17.34;100.00;99782.31;5095300;28;20027;-81
2022/10/16 08:00:13;;;;;;;7.82;6.32;;;;;;;17.71;100.00;99790.16;5096023;28;20028;-81
2022/10/16 08:02:39;;;;;;;7.47;5.95;;;;;;;18.11;100.00;99808.28;5095378;28;20081;-81
2022/10/16 08:05:05;;;;;;;7.93;5.72;;;;;;;18.31;100.00;99801.50;5095557;28;20035;-81
2022/10/16 08:07:30;;;;;;;8.27;6.55;;;;;;;18.26;100.00;99803.66;5095187;28;20082;-81
2022/10/16 08:09:58;;;;;;;5.95;5.45;;;;;;;18.26;99.32;99820.31;5095471;28;20433;-81
2022/10/16 08:12:23;;;;;;;6.43;5.75;;;;;;;18.00;98.08;99805.63;5095280;28;20020;-81
2022/10/16 08:14:48;;;;;;;8.60;6.35;;;;;;;17.85;98.96;99803.16;5095209;28;20054;-81
2022/10/16 08:17:15;;;;;;;6.43;5.82;;;;;;;17.90;99.67;99808.94;5088830;28;20013;-81
2022/10/16 08:19:44;;;;;;;6.90;6.15;;;;;;;17.90;99.33;99805.47;5094391;28;20382;-81
2022/10/16 08:22:09;;;;;;;7.72;6.05;;;;;;;18.02;99.56;99815.09;5095164;28;20050;-81
2022/10/16 08:24:36;;;;;;;7.90;6.05;;;;;;;18.07;98.90;99812.09;5094903;28;20020;-81
2022/10/16 08:27:02;;;;;;;6.53;5.93;;;;;;;18.18;99.12;99810.34;5094952;28;20097;-82
2022/10/16 08:29:28;;;;;;;7.68;6.63;;;;;;;18.41;98.32;99818.28;5095218;28;20020;-81
2022/10/16 08:31:53;;;;;;;7.95;5.60;;;;;;;18.51;98.26;99818.44;5094805;28;20024;-81
2022/10/16 08:34:18;;;;;;;6.15;5.55;;;;;;;18.57;96.74;99805.59;5095037;28;20020;-82
2022/10/16 08:36:44;;;;;;;6.75;5.85;;;;;;;18.61;96.62;99816.78;5094972;28;20048;-81
2022/10/16 08:39:09;;;;;;;6.63;5.72;;;;;;;18.59;96.88;99810.78;5094808;28;20035;-81
2022/10/16 08:41:59;;;;;;;6.68;5.97;;;;;;;18.59;97.12;99832.72;5094402;28;20020;-81
2022/10/16 08:44:52;;;;;;;6.82;5.85;;;;;;;18.70;97.18;99830.09;5094931;28;20459;-81
2022/10/16 08:47:24;;;;;;;8.38;6.45;;;;;;;18.96;96.02;99819.31;5094777;28;20024;-81
2022/10/16 08:50:08;;;;;;;6.20;5.55;;;;;;;19.25;94.78;99829.38;5093599;28;20048;-80
2022/10/16 08:52:38;;;;;;;8.75;7.85;;;;;;;19.47;94.51;99833.78;5094734;28;20035;-79
2022/10/16 08:55:04;;;;;;;15.93;11.82;;;;;;;19.60;93.81;99837.13;5094636;28;20045;-79
2022/10/16 08:57:31;;;;;;;6.20;5.55;;;;;;;19.45;91.68;99847.13;5094521;28;20024;-79
2022/10/16 09:00:05;;;;;;;6.70;5.07;;;;;;;19.27;92.69;99835.38;5094391;28;20028;-79
2022/10/16 09:03:06;;;;;;;7.60;6.65;;;;;;;19.23;93.57;99850.63;5094218;28;20035;-79
2022/10/16 09:05:53;;;;;;;9.55;7.97;;;;;;;18.98;93.46;99850.88;5031727;28;20675;-80
2022/10/16 09:08:34;;;;;;;6.32;5.60;;;;;;;18.72;94.46;99843.19;5031661;28;20045;-80
2022/10/16 09:11:10;;;;;;;5.32;4.82;;;;;;;18.41;94.89;99829.72;5027502;28;20033;-80
2022/10/16 09:13:48;;;;;;;7.97;5.05;;;;;;;18.20;96.05;99826.91;5030793;28;20124;-86
2022/10/16 09:16:34;;;;;;;5.88;5.28;;;;;;;18.11;96.89;99832.00;5012591;28;20480;-80
2022/10/16 09:19:36;;;;;;;6.32;5.18;;;;;;;18.08;98.13;99854.19;5014744;28;20476;-82
2022/10/16 09:22:14;;;;;;;5.90;5.30;;;;;;;18.10;98.64;99843.50;4953188;29;20550;-82
2022/10/16 09:24:39;;;;;;;7.45;5.10;;;;;;;18.11;98.77;99842.53;4951903;29;20042;-80
2022/10/16 09:27:07;;;;;;;7.60;5.90;;;;;;;18.19;98.61;99841.00;4952892;29;20432;-80
2022/10/16 09:29:33;;;;;;;5.63;5.03;;;;;;;18.29;98.80;99842.97;4952672;29;20030;-80
2022/10/16 09:32:10;;;;;;;8.23;6.97;;;;;;;18.38;98.55;99844.91;4952749;29;20035;-80
2022/10/16 09:34:45;;;;;;;6.15;5.43;;;;;;;18.50;97.79;99846.63;4952602;29;20031;-80
2022/10/16 09:37:15;;;;;;;9.93;8.52;;;;;;;18.57;97.56;99841.69;4952990;29;20030;-80
2022/10/16 09:39:44;;;;;;;;;;;;;;;18.60;97.64;99854.66;4997709;28;20390;-80
2022/10/16 09:42:14;;;;;;;9.07;6.93;;;;;;;18.49;97.49;99847.56;5031167;28;19913;-80
2022/10/16 09:44:40;;;;;;;5.30;4.80;;;;;;;18.39;97.14;99851.88;5030816;28;20830;-80
2022/10/16 09:47:18;;;;;;;5.28;4.78;;;;;;;18.37;97.93;99852.00;5030956;28;20084;-80
2022/10/16 09:49:53;;;;;;;6.00;5.00;;;;;;;18.36;98.27;99855.56;5030655;28;20354;-80
2022/10/16 09:52:19;;;;;;;9.75;7.68;;;;;;;18.30;98.18;99849.94;5030731;28;20037;-79
2022/10/16 09:54:59;;;;;;;14.60;10.18;;;;;;;18.32;98.22;99850.63;5030635;28;20029;-79
2022/10/16 09:57:25;;;;;;;16.30;14.60;;;;;;;18.36;98.26;99845.00;5030772;28;20034;-79
2022/10/16 09:59:55;;;;;;;9.13;6.82;;;;;;;18.48;97.24;99847.69;5072096;28;20406;-79
2022/10/16 10:02:35;;;;;;;6.55;5.00;;;;;;;18.60;96.70;99834.41;5072794;28;20028;-79
2022/10/16 10:05:01;;;;;;;8.25;7.18;;;;;;;18.72;96.25;99837.09;5072760;28;20111;-80
2022/10/16 10:07:34;;;;;;;4.88;4.38;;;;;;;18.86;95.79;99853.50;5072660;28;20056;-79
2022/10/16 10:10:01;;;;;;;5.18;4.68;;;;;;;18.97;95.33;99850.06;5072743;28;20102;-80
2022/10/16 10:12:37;;;;;;;5.40;4.88;;;;;;;19.18;94.55;99851.00;5072842;28;20565;-80
2022/10/16 10:15:23;;;;;;;6.78;4.60;;;;;;;19.29;92.88;99857.22;5072635;28;20016;-80
2022/10/16 10:17:51;;;;;;;5.80;4.18;;;;;;;19.16;93.05;99833.59;5072895;28;20519;-81
2022/10/16 10:20:25;;;;;;;9.65;8.68;;;;;;;19.36;93.57;99850.50;5049997;28;20387;-83
2022/10/16 10:22:50;;;;;;;9.77;8.50;;;;;;;19.45;93.62;99842.66;5049692;28;20044;-82
2022/10/16 10:25:25;;;;;;;10.27;9.13;;;;;;;19.52;93.75;99845.66;5050256;28;20029;-82
2022/10/16 10:28:09;;;;;;;7.38;6.68;;;;;;;19.53;93.19;99847.34;5049926;28;20116;-84
2022/10/16 10:30:42;;;;;;;5.70;5.10;;;;;;;19.57;93.09;99848.78;5049964;28;20108;-84
2022/10/16 10:33:34;;;;;;;8.02;7.22;;;;;;;19.63;93.14;99855.38;5050015;28;20113;-83
2022/10/16 10:36:11;;;;;;;7.47;6.65;;;;;;;19.60;93.28;99842.41;5049686;28;20480;-87
2022/10/16 10:39:01;;;;;;;7.25;6.55;;;;;;;19.66;93.15;99848.06;5049955;28;20048;-83
2022/10/16 10:41:44;;;;;;;5.28;4.55;;;;;;;19.72;93.54;99851.16;5049704;28;20017;-83
2022/10/16 10:44:28;;;;;;;9.00;8.18;;;;;;;19.77;93.04;99859.56;5049792;28;20051;-83
2022/10/16 10:47:01;;;;;;;4.43;4.03;;;;;;;19.71;92.35;99845.03;5049605;28;20029;-83
2022/10/16 10:49:48;;;;;;;4.65;4.15;;;;;;;19.72;91.84;99841.44;5049752;28;20530;-84
2022/10/16 10:52:41;;;;;;;4.40;4.00;;;;;;;19.80;91.81;99840.78;5049696;28;20035;-83
2022/10/16 10:55:19;;;;;;;5.30;4.35;;;;;;;19.85;91.42;99842.13;5049718;28;20021;-83
2022/10/16 10:57:47;;;;;;;4.75;4.25;;;;;;;19.97;91.31;99842.06;5060038;28;20028;-83
2022/10/16 11:00:41;;;;;;;6.95;6.25;;;;;;;20.02;91.37;99847.81;5072115;28;20035;-84
2022/10/16 11:03:09;;;;;;;6.07;5.47;;;;;;;20.05;90.59;99844.91;5082235;28;20051;-82
2022/10/16 11:05:44;;;;;;;14.25;12.80;;;;;;;20.12;90.21;99844.28;5069841;28;20493;-82
2022/10/16 11:08:27;;;;;;;14.32;13.10;;;;;;;20.21;90.09;99845.31;5069337;28;20539;-83
2022/10/16 11:11:06;;;;;;;8.73;7.93;;;;;;;20.28;90.07;99835.06;5069498;28;20029;-83
2022/10/16 11:13:51;;;;;;;5.80;5.30;;;;;;;20.32;88.21;99832.03;5069278;28;20139;-83
2022/10/16 11:16:32;;;;;;;5.63;5.13;;;;;;;20.35;87.76;99818.56;5069543;28;20032;-83
2022/10/16 11:19:19;;;;;;;4.93;4.43;;;;;;;20.42;87.73;99822.34;5069121;28;20032;-81
2022/10/16 11:22:14;;;;;;;7.88;7.18;;;;;;;20.37;88.43;99819.25;5069225;28;20024;-80
2022/10/16 11:25:07;;;;;;;5.05;4.47;;;;;;;20.26;88.17;99815.81;4970701;28;20035;-81
2022/10/16 11:27:41;;;;;;;11.98;9.88;;;;;;;20.15;88.84;99808.81;4970704;28;20030;-82